This is the latest recevied weather packets stored in our database for station/object VE3EP-1. If no packets are shown the sender has not sent any weather packets the latest 10 day(s).
| Time | Temp. | Humidity | Pressure | Rain* | Wind** | Luminosity | Snow |
|---|---|---|---|---|---|---|---|
| 1777961528 | 15° C | 68% | 1003.3 hPa | 1.27 mm | - | - | - |
| 1777960929 | 14.44° C | 68% | 1003.1 hPa | 2.54 mm | - | - | - |
| 1777960328 | 14.44° C | 68% | 1003.1 hPa | 2.54 mm | - | - | - |
| 1777959728 | 11.67° C | 80% | 1003.6 hPa | 2.54 mm | - | - | - |
| 1777959128 | 12.22° C | 81% | 1003.7 hPa | 2.54 mm | - | - | - |
| 1777957928 | 15.56° C | 71% | 1004.2 hPa | 1.27 mm | - | - | - |
| 1777957328 | 15° C | 54% | 1003.6 hPa | 0 mm | - | - | - |
| 1777956728 | 15.56° C | 51% | 1003.9 hPa | 0 mm | - | - | - |
| 1777956128 | 16.67° C | 49% | 1004 hPa | 0 mm | - | - | - |
| 1777955529 | 15.56° C | 51% | 1004 hPa | 0 mm | - | - | - |
| 1777954928 | 15° C | 51% | 1003.9 hPa | 0 mm | - | - | - |
| 1777953728 | 15.56° C | 49% | 1003.9 hPa | 0 mm | - | - | - |
| 1777953128 | 15.56° C | 50% | 1003.9 hPa | 0 mm | - | - | - |
| 1777952530 | 15° C | 52% | 1004.1 hPa | 0 mm | - | - | - |
| 1777951929 | 14.44° C | 53% | 1004.2 hPa | 0 mm | - | - | - |
| 1777951328 | 13.89° C | 54% | 1004.3 hPa | 0 mm | - | - | - |
| 1777950730 | 13.33° C | 55% | 1004.2 hPa | 0 mm | - | - | - |
| 1777950128 | 13.33° C | 54% | 1004.4 hPa | 0 mm | - | - | - |
| 1777949528 | 12.78° C | 56% | 1004.5 hPa | 0 mm | - | - | - |
| 1777948929 | 11.67° C | 61% | 1004.4 hPa | 0 mm | - | - | - |
| 1777948329 | 11.67° C | 60% | 1004.5 hPa | 0 mm | - | - | - |
| 1777947728 | 11.67° C | 60% | 1004.5 hPa | 0 mm | - | - | - |
| 1777945928 | 11.67° C | 59% | 1005 hPa | 0 mm | - | - | - |
| 1777945328 | 12.22° C | 59% | 1004.8 hPa | 0 mm | - | - | - |
| 1777944128 | 12.22° C | 58% | 1004.8 hPa | 0 mm | - | - | - |
* Rain latest hour (hover to see other rain measurements)
** Current wind speed in m/s (hover to see current wind gust speed)